Time;durP1;ratioP1;P1;durP2;ratioP2;P2;SDS_P1;SDS_P2;PMS_P1;PMS_P2;Temp;Humidity;BMP_temperature;BMP_pressure;BME280_temperature;BME280_humidity;BME280_pressure;Samples;Min_cycle;Max_cycle;Signal;HPM_P1;HPM_P2
2023/10/05 00:01:44;;;;;;;10.40;7.88;;;;;;;17.21;68.35;95700.06;5094959;28;20521;-66
2023/10/05 00:04:15;;;;;;;9.98;8.63;;;;;;;17.15;68.44;95703.56;5077400;28;20224;-66
2023/10/05 00:06:45;;;;;;;9.13;8.18;;;;;;;17.10;68.30;95696.31;5095558;28;20254;-66
2023/10/05 00:09:16;;;;;;;9.32;8.35;;;;;;;17.06;68.63;95707.41;5077446;28;20227;-66
2023/10/05 00:11:43;;;;;;;9.85;8.85;;;;;;;17.03;68.75;95705.41;5077660;28;20235;-66
2023/10/05 00:14:12;;;;;;;9.48;8.35;;;;;;;17.00;68.80;95702.59;5094907;28;20184;-66
2023/10/05 00:16:45;;;;;;;11.38;8.75;;;;;;;16.94;69.01;95710.47;5095075;28;20196;-66
2023/10/05 00:19:15;;;;;;;10.88;7.95;;;;;;;16.93;68.89;95708.88;5077368;28;20220;-66
2023/10/05 00:21:50;;;;;;;8.57;7.60;;;;;;;16.91;69.03;95705.63;5095593;28;20180;-66
2023/10/05 00:24:18;;;;;;;9.07;8.18;;;;;;;16.94;69.42;95701.31;5077314;28;20567;-66
2023/10/05 00:26:50;;;;;;;9.77;8.13;;;;;;;16.95;69.52;95700.91;5095164;28;20181;-66
2023/10/05 00:29:26;;;;;;;9.40;7.95;;;;;;;16.96;69.08;95701.75;5094758;28;20207;-66
2023/10/05 00:31:55;;;;;;;8.85;7.60;;;;;;;16.97;69.08;95697.75;5078018;28;20192;-66
2023/10/05 00:34:24;;;;;;;9.20;7.65;;;;;;;16.96;69.32;95696.16;5077692;28;20195;-66
2023/10/05 00:36:57;;;;;;;10.07;7.85;;;;;;;16.93;69.15;95689.34;5076996;28;20211;-66
2023/10/05 00:39:24;;;;;;;9.52;7.65;;;;;;;16.94;69.02;95695.72;5098495;28;20215;-66
2023/10/05 00:41:59;;;;;;;8.60;7.70;;;;;;;16.95;69.08;95689.78;5098765;28;20583;-66
2023/10/05 00:44:28;;;;;;;8.00;7.10;;;;;;;16.95;69.06;95695.34;5098940;28;20180;-66
2023/10/05 00:46:55;;;;;;;8.35;7.55;;;;;;;16.97;68.84;95698.56;5098703;28;20185;-66
2023/10/05 00:49:27;;;;;;;8.93;7.95;;;;;;;16.96;69.05;95696.16;5098843;28;20592;-66
2023/10/05 00:52:07;;;;;;;8.90;8.02;;;;;;;16.98;69.31;95693.78;5098991;28;20189;-66
2023/10/05 00:54:35;;;;;;;9.15;7.78;;;;;;;16.99;69.02;95693.44;5099216;28;20262;-66
2023/10/05 00:57:09;;;;;;;9.32;8.23;;;;;;;16.97;68.78;95700.56;5098601;28;20184;-67
2023/10/05 00:59:36;;;;;;;8.55;7.72;;;;;;;16.90;68.70;95700.47;5086544;28;20235;-66
2023/10/05 01:02:14;;;;;;;8.57;7.68;;;;;;;16.85;69.16;95698.81;5100731;28;20192;-66
2023/10/05 01:04:56;;;;;;;10.80;7.60;;;;;;;16.82;69.34;95700.38;5101580;28;20198;-67
2023/10/05 01:12:54;;;;;;;8.15;7.30;;;;;;;16.88;69.07;95684.09;5114525;28;20212;-67
2023/10/05 01:15:33;;;;;;;8.80;7.15;;;;;;;16.91;68.96;95691.72;5100593;28;20231;-67
2023/10/05 01:18:00;;;;;;;8.60;7.53;;;;;;;16.91;69.39;95679.75;5100931;28;20191;-67
2023/10/05 01:20:28;;;;;;;10.93;7.25;;;;;;;16.92;69.00;95682.19;5118276;28;20229;-67
2023/10/05 01:23:01;;;;;;;8.00;7.22;;;;;;;16.93;68.46;95678.22;5100335;28;20199;-67
2023/10/05 01:25:28;;;;;;;8.73;7.43;;;;;;;16.94;68.65;95679.00;5118488;28;20219;-67
2023/10/05 01:27:56;;;;;;;9.55;7.15;;;;;;;16.94;68.56;95684.59;5101419;28;20198;-67
2023/10/05 01:30:24;;;;;;;7.43;6.72;;;;;;;16.91;68.52;95680.56;5100703;28;20202;-67
2023/10/05 01:32:52;;;;;;;7.45;6.75;;;;;;;16.91;68.22;95683.34;5100500;28;20191;-67
2023/10/05 01:35:20;;;;;;;8.63;7.30;;;;;;;16.91;68.15;95680.56;5118279;28;20240;-67
2023/10/05 01:37:51;;;;;;;9.30;7.03;;;;;;;16.86;68.49;95675.34;5117981;28;20603;-67
2023/10/05 01:40:30;;;;;;;7.80;7.03;;;;;;;16.86;68.37;95675.34;5100417;28;20203;-67
2023/10/05 01:42:59;;;;;;;7.80;6.65;;;;;;;16.87;68.43;95674.16;5100655;28;20196;-67
2023/10/05 01:45:29;;;;;;;8.63;6.90;;;;;;;16.88;68.27;95683.31;5117779;28;20525;-66
2023/10/05 01:47:56;;;;;;;8.07;7.15;;;;;;;16.87;68.10;95674.16;5117802;28;20188;-66
2023/10/05 01:50:26;;;;;;;7.70;6.90;;;;;;;16.88;68.23;95669.38;5117379;28;20180;-66
2023/10/05 01:53:01;;;;;;;7.80;7.05;;;;;;;16.89;68.69;95676.56;5100915;28;20225;-66
2023/10/05 01:55:31;;;;;;;9.65;7.25;;;;;;;16.87;68.81;95676.94;5117422;28;20227;-66
2023/10/05 01:57:58;;;;;;;9.15;7.35;;;;;;;16.83;68.39;95679.69;5118045;28;20222;-66
2023/10/05 02:00:26;;;;;;;8.27;6.85;;;;;;;16.81;68.29;95675.66;5099464;28;20322;-66
2023/10/05 02:02:55;;;;;;;11.27;8.25;;;;;;;16.81;68.35;95668.13;5099828;28;20204;-66
2023/10/05 02:05:22;;;;;;;7.20;6.50;;;;;;;16.80;68.46;95679.63;5099732;28;20199;-66
2023/10/05 02:07:50;;;;;;;10.15;7.07;;;;;;;16.80;68.31;95674.06;5100664;28;20192;-66
2023/10/05 02:10:21;;;;;;;8.07;7.28;;;;;;;16.80;68.21;95682.41;5099784;28;20257;-66
2023/10/05 02:12:54;;;;;;;7.75;6.88;;;;;;;16.79;68.33;95680.81;5099958;28;20546;-66
2023/10/05 02:15:28;;;;;;;8.10;7.30;;;;;;;16.80;68.34;95677.66;5117449;28;20188;-66
2023/10/05 02:17:56;;;;;;;9.57;7.07;;;;;;;16.79;67.91;95680.81;5100271;28;20199;-66
2023/10/05 02:20:38;;;;;;;8.18;6.72;;;;;;;16.79;67.88;95673.25;5117280;28;20199;-66
2023/10/05 02:23:24;;;;;;;10.63;7.22;;;;;;;16.73;68.02;95682.28;5099940;28;20192;-66
2023/10/05 02:26:00;;;;;;;8.43;7.22;;;;;;;16.60;68.61;95685.31;5099616;28;20215;-67
2023/10/05 02:28:31;;;;;;;9.05;7.50;;;;;;;16.52;69.16;95683.63;5099183;28;20627;-67
2023/10/05 02:31:00;;;;;;;8.00;7.20;;;;;;;16.45;69.15;95675.16;5099925;28;20192;-67
2023/10/05 02:33:31;;;;;;;9.65;7.05;;;;;;;16.44;69.17;95687.47;5099245;28;20192;-67
2023/10/05 02:36:09;;;;;;;8.13;7.05;;;;;;;16.45;69.48;95683.53;5098997;28;20232;-67
2023/10/05 02:38:37;;;;;;;7.45;6.65;;;;;;;16.43;69.27;95685.06;5099606;28;20286;-67
2023/10/05 02:41:07;;;;;;;8.38;7.00;;;;;;;16.37;69.54;95685.38;5099437;28;20199;-67
2023/10/05 02:43:39;;;;;;;9.48;7.47;;;;;;;16.31;69.80;95681.31;5099824;28;20195;-67
2023/10/05 02:46:12;;;;;;;9.27;6.95;;;;;;;16.27;70.07;95680.47;5117206;28;20206;-67
2023/10/05 02:48:43;;;;;;;9.45;7.25;;;;;;;16.23;70.06;95687.97;5099169;28;20344;-67
2023/10/05 02:51:13;;;;;;;8.43;7.53;;;;;;;16.22;70.01;95691.13;5099037;28;20223;-67
2023/10/05 02:53:45;;;;;;;8.13;7.32;;;;;;;16.21;69.90;95687.53;5116687;28;20225;-67
2023/10/05 02:56:27;;;;;;;8.48;7.00;;;;;;;16.17;70.16;95683.09;5099000;28;20294;-67
2023/10/05 02:59:02;;;;;;;9.70;7.40;;;;;;;16.14;70.10;95695.75;5098851;28;20200;-67
2023/10/05 03:01:32;;;;;;;9.32;7.18;;;;;;;16.10;70.02;95687.38;5078246;28;20295;-66
2023/10/05 03:04:03;;;;;;;8.63;7.72;;;;;;;16.08;70.26;95691.69;5096152;28;20318;-65
2023/10/05 03:06:30;;;;;;;10.35;7.95;;;;;;;16.04;70.33;95691.63;5079065;28;20192;-65
2023/10/05 03:09:06;;;;;;;10.43;8.00;;;;;;;15.98;70.52;95687.56;5078848;28;20207;-65
2023/10/05 03:11:38;;;;;;;10.15;7.32;;;;;;;15.95;70.73;95688.31;5078415;28;20295;-65
2023/10/05 03:14:09;;;;;;;11.38;7.85;;;;;;;15.94;70.60;95691.44;5078519;28;20204;-65
2023/10/05 03:16:43;;;;;;;11.75;7.88;;;;;;;15.92;70.67;95693.81;5078141;28;20294;-65
2023/10/05 03:19:13;;;;;;;9.15;7.72;;;;;;;15.90;70.83;95688.63;5078884;28;20220;-65
2023/10/05 03:21:40;;;;;;;10.40;7.85;;;;;;;15.87;70.45;95683.81;5078588;28;20215;-65
2023/10/05 03:24:25;;;;;;;13.60;8.40;;;;;;;15.86;70.87;95685.78;5078302;28;20253;-65
2023/10/05 03:26:54;;;;;;;13.68;8.60;;;;;;;15.86;70.54;95687.75;5095770;28;20271;-65
2023/10/05 03:29:22;;;;;;;9.20;8.02;;;;;;;15.83;70.80;95689.31;5077996;28;20188;-65
2023/10/05 03:31:53;;;;;;;12.70;9.13;;;;;;;15.83;70.91;95694.06;5078159;28;20283;-65
2023/10/05 03:34:20;;;;;;;12.95;8.70;;;;;;;15.82;71.06;95693.25;5078490;28;20200;-65
2023/10/05 03:36:48;;;;;;;10.23;8.85;;;;;;;15.83;70.90;95694.06;5077612;28;20184;-65
2023/10/05 03:39:15;;;;;;;14.50;8.40;;;;;;;15.78;70.80;95697.97;5077510;28;20208;-65
2023/10/05 03:41:42;;;;;;;11.40;8.38;;;;;;;15.77;70.97;95706.69;5077516;28;20286;-65
2023/10/05 03:44:08;;;;;;;10.77;8.15;;;;;;;15.79;71.26;95699.56;5078346;28;20259;-65
2023/10/05 03:46:36;;;;;;;11.95;8.15;;;;;;;15.75;70.63;95704.25;5078613;28;20300;-65
2023/10/05 03:49:06;;;;;;;11.43;8.38;;;;;;;15.73;70.97;95694.69;5077477;28;20287;-65
2023/10/05 03:51:37;;;;;;;13.57;7.70;;;;;;;15.71;71.09;95702.59;5077358;28;20215;-65
2023/10/05 03:54:07;;;;;;;9.50;7.75;;;;;;;15.73;71.22;95692.72;5078060;28;20295;-65
2023/10/05 03:56:36;;;;;;;12.95;8.23;;;;;;;15.74;71.13;95699.88;5078265;28;20593;-65
2023/10/05 03:59:03;;;;;;;11.98;9.02;;;;;;;15.70;71.18;95704.59;5076903;28;20442;-65
2023/10/05 04:01:30;;;;;;;11.30;8.80;;;;;;;15.63;71.02;95699.66;5077925;28;20196;-65
2023/10/05 04:04:04;;;;;;;17.20;9.48;;;;;;;15.60;70.99;95708.75;5077789;28;20299;-65
2023/10/05 04:06:31;;;;;;;15.20;9.15;;;;;;;15.55;71.11;95705.47;5077055;28;20632;-64
2023/10/05 04:08:59;;;;;;;13.38;8.90;;;;;;;15.43;71.46;95706.44;5077327;28;20196;-64
2023/10/05 04:11:26;;;;;;;13.93;8.52;;;;;;;15.34;71.32;95706.69;5078561;28;20192;-64
2023/10/05 04:13:54;;;;;;;11.73;8.52;;;;;;;15.34;71.66;95714.22;5081893;28;20253;-64
2023/10/05 04:16:26;;;;;;;10.07;8.45;;;;;;;15.33;71.47;95712.63;5081914;28;20211;-64
2023/10/05 04:18:55;;;;;;;18.20;9.13;;;;;;;15.31;71.30;95712.97;5082093;28;20204;-64
2023/10/05 04:21:24;;;;;;;15.85;8.18;;;;;;;15.32;71.45;95714.59;5081191;28;20315;-64
2023/10/05 04:23:52;;;;;;;10.98;8.32;;;;;;;15.33;71.58;95718.19;5081492;28;20291;-64
2023/10/05 04:26:20;;;;;;;12.35;8.13;;;;;;;15.27;71.28;95712.09;5081690;28;20262;-65
2023/10/05 04:28:54;;;;;;;12.65;8.02;;;;;;;15.23;71.61;95718.75;5081858;28;20192;-64
2023/10/05 04:31:25;;;;;;;15.65;9.85;;;;;;;15.19;71.86;95712.34;5081877;28;20203;-64
2023/10/05 04:33:52;;;;;;;11.00;9.13;;;;;;;15.17;71.87;95719.03;5081634;28;20200;-64
2023/10/05 04:36:22;;;;;;;13.60;9.40;;;;;;;15.15;71.46;95721.41;5081522;28;20195;-64
2023/10/05 04:38:51;;;;;;;13.73;9.27;;;;;;;15.15;71.55;95718.63;5081698;28;20189;-64
2023/10/05 04:41:19;;;;;;;12.73;9.32;;;;;;;15.13;71.56;95725.72;5081592;28;20227;-64
2023/10/05 04:43:50;;;;;;;17.30;10.25;;;;;;;15.11;71.71;95725.28;5081653;28;20193;-64
2023/10/05 04:46:19;;;;;;;13.55;10.05;;;;;;;15.09;71.75;95735.94;5081818;28;20203;-64
2023/10/05 04:48:55;;;;;;;17.10;10.63;;;;;;;15.08;71.56;95734.34;5080762;28;20192;-64
2023/10/05 04:51:25;;;;;;;15.30;10.45;;;;;;;15.02;72.02;95731.03;5080523;28;20222;-64
2023/10/05 04:53:58;;;;;;;17.42;10.40;;;;;;;15.02;71.66;95733.81;5081631;28;20196;-64
2023/10/05 04:56:35;;;;;;;14.38;10.65;;;;;;;15.01;72.00;95745.31;5081418;28;20227;-64
2023/10/05 05:04:41;;;;;;;19.65;10.50;;;;;;;14.96;71.83;95745.59;5077213;28;20192;-64
2023/10/05 05:07:09;;;;;;;17.70;10.73;;;;;;;14.93;72.20;95736.84;5080606;28;20246;-64
2023/10/05 05:09:41;;;;;;;18.90;10.05;;;;;;;14.90;72.01;95745.09;5080778;28;20197;-64
2023/10/05 05:12:16;;;;;;;21.10;10.13;;;;;;;14.89;72.08;95754.59;5080806;28;20197;-64
2023/10/05 05:14:44;;;;;;;15.23;9.93;;;;;;;14.88;72.40;95759.31;5080247;28;20571;-64
2023/10/05 05:17:14;;;;;;;20.27;10.73;;;;;;;14.89;72.01;95752.63;5097890;28;20193;-64
2023/10/05 05:19:41;;;;;;;19.85;10.45;;;;;;;14.91;72.08;95755.81;5098086;28;20211;-64
2023/10/05 05:22:10;;;;;;;18.83;10.10;;;;;;;14.91;72.16;95757.78;5080467;28;20201;-64
2023/10/05 05:24:41;;;;;;;17.95;10.57;;;;;;;14.92;72.31;95754.66;5079946;28;20331;-64
2023/10/05 05:27:21;;;;;;;15.73;9.98;;;;;;;14.96;72.23;95756.69;5098082;28;20173;-65
2023/10/05 05:29:51;;;;;;;17.15;9.55;;;;;;;14.99;72.41;95758.75;5081011;28;20224;-64
2023/10/05 05:32:23;;;;;;;16.10;10.63;;;;;;;15.00;72.30;95754.81;5080411;28;20204;-64
2023/10/05 05:34:50;;;;;;;15.25;9.25;;;;;;;15.02;72.16;95764.38;5098156;28;20216;-64
2023/10/05 05:37:26;;;;;;;15.68;9.98;;;;;;;15.03;71.73;95766.00;5097731;28;20177;-64
2023/10/05 05:39:55;;;;;;;16.85;9.85;;;;;;;15.06;72.42;95762.47;5098078;28;20218;-64
2023/10/05 05:42:25;;;;;;;18.17;8.90;;;;;;;15.10;72.13;95770.88;5080300;28;20295;-64
2023/10/05 05:44:52;;;;;;;10.30;8.05;;;;;;;15.14;72.06;95769.81;5080257;28;20208;-64
2023/10/05 05:47:19;;;;;;;14.15;8.82;;;;;;;15.22;71.63;95769.97;5080361;28;20188;-64
2023/10/05 05:49:50;;;;;;;11.00;7.82;;;;;;;15.28;71.35;95772.06;5080409;28;20200;-64
2023/10/05 05:52:17;;;;;;;10.55;7.97;;;;;;;15.34;70.97;95778.13;5080070;28;20192;-64
2023/10/05 05:54:46;;;;;;;9.45;6.80;;;;;;;15.39;70.29;95781.41;5080101;28;20192;-64
2023/10/05 05:57:19;;;;;;;8.73;6.50;;;;;;;15.42;70.04;95782.66;5079954;28;20199;-64
2023/10/05 05:59:46;;;;;;;8.18;6.22;;;;;;;15.46;69.54;95777.16;5097764;28;20228;-64
2023/10/05 06:02:14;;;;;;;10.88;6.20;;;;;;;15.47;68.95;95782.38;5079917;28;20232;-64
2023/10/05 06:04:41;;;;;;;9.07;5.78;;;;;;;15.52;68.52;95787.63;5079384;28;20691;-64
2023/10/05 06:07:13;;;;;;;11.73;6.18;;;;;;;15.57;67.68;95795.66;5080399;28;20295;-64
2023/10/05 06:09:42;;;;;;;10.23;6.13;;;;;;;15.60;67.23;95794.94;5097305;28;20199;-64
2023/10/05 06:12:12;;;;;;;9.43;5.15;;;;;;;15.64;66.63;95804.16;5080253;28;20220;-64
2023/10/05 06:14:41;;;;;;;12.10;5.40;;;;;;;15.68;66.69;95797.88;5080307;28;20229;-64
2023/10/05 06:17:08;;;;;;;12.38;4.78;;;;;;;15.73;66.40;95797.59;5079654;28;20192;-64
2023/10/05 06:19:36;;;;;;;11.15;4.72;;;;;;;15.76;66.18;95800.44;5079347;28;20189;-64
2023/10/05 06:22:04;;;;;;;9.35;4.78;;;;;;;15.79;65.85;95805.25;5079224;28;20219;-64
2023/10/05 06:24:30;;;;;;;9.30;4.40;;;;;;;15.85;65.59;95800.19;5079132;28;20192;-64
2023/10/05 06:26:58;;;;;;;8.88;4.38;;;;;;;15.89;65.75;95798.28;5079165;28;20207;-64
2023/10/05 06:29:25;;;;;;;8.27;4.68;;;;;;;15.93;65.33;95799.16;5079130;28;20235;-64
2023/10/05 06:31:54;;;;;;;6.22;4.68;;;;;;;15.96;64.50;95794.84;5096534;28;20200;-64
2023/10/05 06:34:23;;;;;;;6.75;3.97;;;;;;;15.99;64.36;95802.44;5096947;28;20202;-64
2023/10/05 06:36:52;;;;;;;7.60;4.20;;;;;;;16.01;63.81;95800.06;5096621;28;20188;-64
2023/10/05 06:39:19;;;;;;;4.78;3.90;;;;;;;16.03;63.79;95794.97;5096902;28;20194;-64
2023/10/05 06:41:46;;;;;;;5.55;4.20;;;;;;;16.07;63.32;95804.97;5078626;28;20298;-64
2023/10/05 06:44:14;;;;;;;5.25;3.88;;;;;;;16.11;62.95;95802.25;5078691;28;20184;-64
2023/10/05 06:46:43;;;;;;;4.93;3.95;;;;;;;16.12;62.37;95809.41;5078460;28;20196;-64
2023/10/05 06:49:13;;;;;;;7.80;4.43;;;;;;;16.11;62.22;95803.06;5096791;28;20204;-64
2023/10/05 06:51:43;;;;;;;6.35;4.10;;;;;;;16.17;62.33;95802.75;5078303;28;20628;-64
2023/10/05 06:54:14;;;;;;;9.50;4.50;;;;;;;16.22;62.60;95799.66;5078585;28;20201;-64
2023/10/05 06:56:41;;;;;;;6.22;4.60;;;;;;;16.26;62.34;95798.53;5096147;28;20185;-64
2023/10/05 06:59:08;;;;;;;6.15;4.00;;;;;;;16.32;62.02;95799.03;5078351;28;20204;-64
2023/10/05 07:01:37;;;;;;;6.95;4.10;;;;;;;16.33;61.60;95795.88;5079388;28;20220;-64
2023/10/05 07:04:07;;;;;;;7.82;4.18;;;;;;;16.41;61.84;95801.56;5079356;28;20266;-64
2023/10/05 07:06:39;;;;;;;4.22;3.83;;;;;;;16.52;61.65;95799.75;5078183;28;20193;-64
2023/10/05 07:09:08;;;;;;;7.20;4.13;;;;;;;16.66;61.27;95801.94;5096325;28;20185;-65
2023/10/05 07:11:37;;;;;;;6.82;3.90;;;;;;;16.76;61.01;95802.16;5095844;28;20196;-64
2023/10/05 07:14:04;;;;;;;4.93;3.92;;;;;;;16.84;60.10;95803.06;5078778;28;20654;-64
2023/10/05 07:16:31;;;;;;;6.70;4.20;;;;;;;16.92;59.86;95807.56;5096698;28;20189;-64
2023/10/05 07:18:59;;;;;;;7.35;4.22;;;;;;;17.00;59.74;95795.34;5077468;28;20208;-64
2023/10/05 07:21:26;;;;;;;6.90;4.20;;;;;;;17.04;59.64;95793.41;5078937;28;20220;-64
2023/10/05 07:23:54;;;;;;;7.03;4.43;;;;;;;17.14;59.52;95793.91;5079048;28;20293;-64
2023/10/05 07:26:21;;;;;;;7.50;4.22;;;;;;;17.26;59.07;95800.06;5078240;28;20283;-64
2023/10/05 07:28:49;;;;;;;6.85;3.80;;;;;;;17.36;59.14;95795.00;5096029;28;20196;-64
2023/10/05 07:31:16;;;;;;;6.38;4.07;;;;;;;17.42;58.55;95790.69;5095529;28;20223;-64
2023/10/05 07:33:43;;;;;;;5.45;3.95;;;;;;;17.53;58.65;95800.00;5077896;28;20678;-64
2023/10/05 07:36:10;;;;;;;5.10;4.22;;;;;;;17.62;57.51;95805.28;5078209;28;20200;-64
2023/10/05 07:38:38;;;;;;;7.55;4.20;;;;;;;17.68;57.61;95798.97;5096006;28;20194;-64
2023/10/05 07:41:09;;;;;;;5.82;4.18;;;;;;;17.80;57.37;95797.94;5077512;28;20287;-65
2023/10/05 07:43:36;;;;;;;4.75;4.25;;;;;;;17.88;57.12;95794.03;5077869;28;20284;-64
2023/10/05 07:46:06;;;;;;;5.90;4.47;;;;;;;17.97;56.65;95799.31;5078074;28;20201;-64
2023/10/05 07:48:34;;;;;;;6.43;4.43;;;;;;;18.05;56.39;95795.41;5077940;28;20288;-64
2023/10/05 07:51:01;;;;;;;8.65;4.10;;;;;;;18.13;56.20;95799.09;5078107;28;20199;-64
2023/10/05 07:53:28;;;;;;;7.18;4.25;;;;;;;18.16;56.05;95792.75;5095515;28;20196;-64
2023/10/05 07:55:55;;;;;;;6.82;4.88;;;;;;;18.23;56.00;95782.44;5095425;28;20192;-64
2023/10/05 07:58:25;;;;;;;8.48;4.05;;;;;;;18.33;55.18;95780.91;5077575;28;20229;-64
2023/10/05 08:00:52;;;;;;;6.50;4.18;;;;;;;18.40;55.69;95783.75;5094745;28;20239;-64
2023/10/05 08:03:19;;;;;;;7.53;4.60;;;;;;;18.49;55.32;95784.25;5098058;28;20523;-64
2023/10/05 08:05:46;;;;;;;6.72;4.53;;;;;;;18.58;55.08;95778.31;5115675;28;20271;-64
2023/10/05 08:08:15;;;;;;;6.70;4.32;;;;;;;18.63;54.95;95782.75;5098531;28;20192;-64
2023/10/05 08:10:43;;;;;;;6.32;4.50;;;;;;;18.69;54.88;95779.19;5115708;28;20184;-64
2023/10/05 08:13:10;;;;;;;6.80;4.25;;;;;;;18.76;55.08;95775.69;5115691;28;20219;-64
2023/10/05 08:15:39;;;;;;;8.98;5.15;;;;;;;18.80;54.26;95773.72;5115538;28;20287;-64
2023/10/05 08:18:06;;;;;;;6.13;4.53;;;;;;;18.88;54.89;95771.75;5097941;28;20195;-64
2023/10/05 08:20:34;;;;;;;8.68;4.78;;;;;;;19.02;55.12;95779.44;5097199;28;20199;-64
2023/10/05 08:23:00;;;;;;;6.82;4.78;;;;;;;19.10;54.19;95769.88;5097903;28;20206;-64
2023/10/05 08:25:28;;;;;;;6.68;5.07;;;;;;;19.22;54.15;95778.75;5097802;28;20214;-65
2023/10/05 08:27:55;;;;;;;6.82;4.85;;;;;;;19.34;54.14;95776.81;5097706;28;20211;-64
2023/10/05 08:30:24;;;;;;;7.80;5.05;;;;;;;19.39;53.33;95771.66;5098358;28;20192;-64
2023/10/05 08:32:55;;;;;;;8.48;4.95;;;;;;;19.45;53.98;95772.06;5097759;28;20199;-64
2023/10/05 08:35:26;;;;;;;8.27;5.13;;;;;;;19.55;54.02;95771.31;5097537;28;20260;-64
2023/10/05 08:37:53;;;;;;;10.55;5.50;;;;;;;19.71;53.91;95762.59;5098376;28;20203;-64
2023/10/05 08:40:37;;;;;;;6.75;5.10;;;;;;;19.83;53.57;95764.22;5115691;28;20511;-64
2023/10/05 08:43:09;;;;;;;6.85;5.43;;;;;;;19.95;53.18;95761.06;5097873;28;20205;-64
2023/10/05 08:45:51;;;;;;;7.93;5.10;;;;;;;20.06;52.67;95763.88;5097661;28;20249;-64
2023/10/05 08:48:22;;;;;;;10.70;6.13;;;;;;;20.18;52.20;95767.06;5097969;28;20203;-64
2023/10/05 08:50:53;;;;;;;7.70;5.13;;;;;;;20.19;52.04;95765.91;5097122;28;20196;-64
2023/10/05 08:53:23;;;;;;;8.32;5.57;;;;;;;20.23;52.06;95765.09;5097658;28;20210;-64
2023/10/05 08:55:52;;;;;;;7.53;5.78;;;;;;;20.32;52.32;95760.69;5097568;28;20227;-64
2023/10/05 08:58:20;;;;;;;10.60;5.55;;;;;;;20.44;52.16;95763.09;5115411;28;20199;-64
2023/10/05 09:00:48;;;;;;;7.72;5.90;;;;;;;20.58;52.59;95765.13;5103257;28;20248;-64
2023/10/05 09:06:20;;;;;;;8.23;5.88;;;;;;;20.72;52.20;95753.09;5155078;27;20557;-64
2023/10/05 09:08:51;;;;;;;12.27;5.60;;;;;;;20.82;51.57;95752.28;5153736;27;20209;-64
2023/10/05 09:11:23;;;;;;;10.73;6.28;;;;;;;21.03;51.31;95750.66;5154237;27;20191;-64
2023/10/05 09:13:50;;;;;;;8.15;5.68;;;;;;;21.18;50.84;95741.00;5154607;27;20246;-64
2023/10/05 09:16:30;;;;;;;10.18;5.90;;;;;;;21.30;50.56;95736.94;5154261;27;20178;-64
2023/10/05 09:19:00;;;;;;;7.97;6.03;;;;;;;21.44;50.31;95739.72;5153293;27;20194;-64
2023/10/05 09:21:44;;;;;;;7.53;5.80;;;;;;;21.54;50.32;95736.06;5153847;27;20273;-64
2023/10/05 09:24:22;;;;;;;10.70;6.75;;;;;;;21.67;49.62;95732.78;5153581;27;20210;-64
2023/10/05 09:26:54;;;;;;;6.65;5.93;;;;;;;21.75;49.49;95729.56;5153181;27;20208;-64
2023/10/05 09:29:22;;;;;;;8.73;6.45;;;;;;;21.72;49.38;95733.16;5153671;27;20258;-64
2023/10/05 09:31:59;;;;;;;7.68;6.18;;;;;;;21.70;49.00;95727.16;5153070;27;20204;-64
2023/10/05 09:34:43;;;;;;;7.88;6.50;;;;;;;21.68;49.42;95725.94;5153864;27;20562;-64
2023/10/05 09:37:16;;;;;;;7.93;6.18;;;;;;;21.71;48.77;95717.50;5153508;27;20201;-64
2023/10/05 09:39:44;;;;;;;7.97;5.43;;;;;;;21.85;50.00;95722.25;5153920;27;20179;-64
2023/10/05 09:42:16;;;;;;;7.82;5.97;;;;;;;21.96;49.23;95713.75;5153532;27;20261;-64
2023/10/05 09:44:50;;;;;;;8.48;6.55;;;;;;;22.02;48.52;95710.09;5152993;27;20271;-64
2023/10/05 09:47:25;;;;;;;7.97;6.93;;;;;;;22.16;48.43;95712.06;5153448;27;20189;-64
2023/10/05 09:49:54;;;;;;;9.70;6.35;;;;;;;22.31;48.34;95707.13;5153650;27;20178;-64
2023/10/05 09:52:27;;;;;;;9.82;6.60;;;;;;;22.36;47.82;95703.84;5152963;27;20198;-64
2023/10/05 09:54:54;;;;;;;8.18;6.10;;;;;;;22.45;47.87;95703.38;5153174;27;20285;-64
2023/10/05 09:57:23;;;;;;;8.98;6.68;;;;;;;22.55;46.93;95694.06;5152582;27;20216;-64
2023/10/05 09:59:57;;;;;;;8.77;6.47;;;;;;;22.67;47.23;95696.34;5152421;27;20252;-64
2023/10/05 10:02:28;;;;;;;12.20;6.57;;;;;;;22.76;46.74;95696.66;5152133;27;20199;-64
2023/10/05 10:04:57;;;;;;;10.30;6.60;;;;;;;22.76;46.46;95693.03;5152344;27;20294;-64
2023/10/05 10:07:32;;;;;;;9.20;6.40;;;;;;;22.65;46.59;95681.09;5152418;27;20247;-64
2023/10/05 10:10:01;;;;;;;8.73;6.82;;;;;;;22.69;47.16;95677.03;5152069;27;20288;-64
2023/10/05 10:12:33;;;;;;;9.20;7.07;;;;;;;22.78;47.38;95679.38;5153183;27;20207;-64
2023/10/05 10:15:01;;;;;;;6.85;5.90;;;;;;;22.92;46.69;95672.84;5152159;27;20221;-64
2023/10/05 10:17:32;;;;;;;10.23;6.32;;;;;;;22.88;46.84;95675.66;5139602;27;20183;-64
2023/10/05 10:20:16;;;;;;;8.20;6.63;;;;;;;22.94;46.52;95676.81;5139277;27;20179;-64
2023/10/05 10:22:55;;;;;;;8.07;6.72;;;;;;;22.97;46.74;95664.72;5138979;27;20496;-64
2023/10/05 10:25:29;;;;;;;7.80;6.10;;;;;;;23.04;46.31;95664.63;5139660;27;20204;-64
2023/10/05 10:28:14;;;;;;;7.70;6.57;;;;;;;23.07;45.98;95660.19;5138709;27;20198;-64
2023/10/05 10:30:46;;;;;;;7.68;6.70;;;;;;;23.13;45.60;95661.34;5139200;27;20260;-64
2023/10/05 10:33:35;;;;;;;7.57;6.63;;;;;;;23.10;45.25;95656.53;5138289;27;20202;-64
2023/10/05 10:36:21;;;;;;;8.75;6.75;;;;;;;23.12;45.13;95653.28;5138954;27;20183;-64
2023/10/05 10:38:51;;;;;;;7.90;6.07;;;;;;;23.11;45.67;95646.88;5139420;27;20180;-64
2023/10/05 10:41:21;;;;;;;10.02;6.78;;;;;;;23.17;45.28;95641.59;5138025;27;20218;-64
2023/10/05 10:43:55;;;;;;;8.93;7.03;;;;;;;23.26;45.34;95639.84;5138895;27;20194;-64
2023/10/05 10:46:34;;;;;;;8.30;6.70;;;;;;;23.35;45.32;95630.91;5138514;27;20716;-64
2023/10/05 10:49:07;;;;;;;8.68;6.68;;;;;;;23.45;45.19;95621.50;5137386;27;20705;-64
2023/10/05 10:51:37;;;;;;;9.38;6.88;;;;;;;23.55;45.26;95626.19;5139223;27;20191;-64
2023/10/05 10:54:17;;;;;;;9.57;6.80;;;;;;;23.63;44.91;95620.44;5138269;27;20183;-64
2023/10/05 10:56:44;;;;;;;8.48;6.90;;;;;;;23.74;44.31;95621.09;5138855;27;20187;-64
2023/10/05 10:59:13;;;;;;;7.68;6.15;;;;;;;23.75;44.79;95617.09;5138437;27;20203;-64
2023/10/05 11:01:42;;;;;;;8.48;6.78;;;;;;;23.72;44.36;95613.09;5137525;27;20203;-64
2023/10/05 11:04:25;;;;;;;9.10;6.60;;;;;;;23.63;44.69;95603.53;5137101;27;20231;-64
2023/10/05 11:07:05;;;;;;;7.07;6.20;;;;;;;23.66;44.45;95600.69;5137424;27;20203;-64
2023/10/05 11:09:48;;;;;;;8.30;6.63;;;;;;;23.66;44.64;95592.22;5138360;27;20207;-64
2023/10/05 11:12:17;;;;;;;9.00;7.25;;;;;;;23.77;44.03;95589.28;5137910;27;20531;-64
2023/10/05 11:14:45;;;;;;;7.63;6.10;;;;;;;23.69;44.44;95585.78;5137252;27;20290;-64
2023/10/05 11:17:29;;;;;;;8.70;6.82;;;;;;;23.66;44.24;95580.97;5138104;27;20198;-64
2023/10/05 11:19:57;;;;;;;8.30;6.68;;;;;;;23.61;44.49;95580.66;5138029;27;20265;-64
2023/10/05 11:22:25;;;;;;;8.18;6.65;;;;;;;23.59;44.79;95574.66;5137921;27;20191;-64
2023/10/05 11:27:54;;;;;;;7.45;6.63;;;;;;;23.50;44.90;95576.00;5133821;27;20207;-64
2023/10/05 11:30:24;;;;;;;9.25;7.13;;;;;;;23.48;45.30;95572.78;5137548;27;20525;-64
2023/10/05 11:32:57;;;;;;;8.82;6.72;;;;;;;23.49;45.33;95567.94;5137792;27;20235;-64
2023/10/05 11:35:30;;;;;;;8.00;7.20;;;;;;;23.50;45.24;95567.53;5137443;27;20211;-64
2023/10/05 11:38:03;;;;;;;8.48;6.93;;;;;;;23.50;44.37;95561.91;5138007;27;20175;-64
2023/10/05 11:40:34;;;;;;;9.40;7.10;;;;;;;23.47;44.36;95556.34;5137705;27;20180;-64
2023/10/05 11:43:12;;;;;;;8.15;6.70;;;;;;;23.49;44.90;95560.34;5137584;27;20187;-64
2023/10/05 11:45:39;;;;;;;11.07;6.43;;;;;;;23.54;44.21;95559.84;5137779;27;20198;-64
2023/10/05 11:48:13;;;;;;;8.70;6.72;;;;;;;23.55;44.95;95555.78;5136885;27;20203;-64
2023/10/05 11:50:51;;;;;;;7.40;6.40;;;;;;;23.58;44.73;95559.00;5137505;27;20190;-64
2023/10/05 11:53:21;;;;;;;11.30;7.57;;;;;;;23.58;45.05;95556.19;5136513;27;20195;-65
2023/10/05 11:55:55;;;;;;;7.95;6.78;;;;;;;23.59;44.61;95544.47;5136748;27;20302;-65
2023/10/05 11:58:22;;;;;;;8.45;7.00;;;;;;;23.61;44.24;95544.84;5137637;27;20191;-65
2023/10/05 12:00:51;;;;;;;9.85;6.63;;;;;;;23.72;44.11;95550.34;5137296;27;20179;-65
2023/10/05 12:03:18;;;;;;;7.30;6.50;;;;;;;23.74;43.51;95548.69;5137111;27;20286;-64